createdAt,value
2022-08-30T00:02:10.902Z,100257.81
2022-08-30T00:04:37.920Z,100256.97
2022-08-30T00:07:04.664Z,100264.06
2022-08-30T00:09:32.433Z,100253.97
2022-08-30T00:11:59.606Z,100256.41
2022-08-30T00:14:27.588Z,100258.59
2022-08-30T00:16:54.598Z,100252.59
2022-08-30T00:19:21.558Z,100263.19
2022-08-30T00:21:48.178Z,100264.81
2022-08-30T00:24:14.876Z,100249.03
2022-08-30T00:26:41.869Z,100260.19
2022-08-30T00:29:08.759Z,100255.53
2022-08-30T00:31:35.470Z,100252.56
2022-08-30T00:34:02.803Z,100254.72
2022-08-30T00:36:29.580Z,100260.41
2022-08-30T00:38:56.311Z,100261.78
2022-08-30T00:41:23.248Z,100248.97
2022-08-30T00:43:50.153Z,100256.03
2022-08-30T00:46:16.898Z,100256.84
2022-08-30T00:48:48.917Z,100257.37
2022-08-30T00:51:17.214Z,100267.72
2022-08-30T00:53:54.852Z,100257.63
2022-08-30T00:56:24.564Z,100265.00
2022-08-30T00:58:55.812Z,100265.78
2022-08-30T01:01:23.601Z,100274.47
2022-08-30T01:03:50.813Z,100273.63
2022-08-30T01:06:18.136Z,100272.50
2022-08-30T01:08:46.406Z,100284.44
2022-08-30T01:11:17.200Z,100282.25
2022-08-30T01:13:45.700Z,100273.03
2022-08-30T01:16:12.869Z,100277.34
2022-08-30T01:18:40.438Z,100279.75
2022-08-30T01:21:27.316Z,100275.06
2022-08-30T01:23:58.136Z,100264.47
2022-08-30T01:26:26.646Z,100288.09
2022-08-30T01:28:56.855Z,100284.28
2022-08-30T01:31:23.947Z,100271.72
2022-08-30T01:33:51.139Z,100280.16
2022-08-30T01:36:19.670Z,100283.66
2022-08-30T01:38:50.316Z,100275.78
2022-08-30T01:41:21.827Z,100283.38
2022-08-30T01:43:50.534Z,100277.63
2022-08-30T01:46:20.237Z,100278.16
2022-08-30T01:48:54.016Z,100270.00
2022-08-30T01:51:23.742Z,100282.50
2022-08-30T01:53:50.722Z,100281.37
2022-08-30T01:56:18.001Z,100260.66
2022-08-30T01:58:46.142Z,100272.59
2022-08-30T02:01:15.070Z,100272.34
2022-08-30T02:03:44.229Z,100276.94
2022-08-30T02:06:14.156Z,100276.38
2022-08-30T02:08:41.405Z,100270.34
2022-08-30T02:11:09.540Z,100287.22
2022-08-30T02:13:40.208Z,100278.75
2022-08-30T02:16:09.577Z,100282.75
2022-08-30T02:18:39.275Z,100280.56
2022-08-30T02:21:07.536Z,100279.16
2022-08-30T02:23:35.026Z,100286.78
2022-08-30T02:26:02.630Z,100286.53
2022-08-30T02:28:29.479Z,100285.72
2022-08-30T02:30:57.227Z,100287.06
2022-08-30T02:33:24.386Z,100279.09
2022-08-30T02:35:51.045Z,100289.44
2022-08-30T02:38:18.915Z,100293.22
2022-08-30T02:40:47.427Z,100281.69
2022-08-30T02:43:14.283Z,100288.47
2022-08-30T02:45:41.174Z,100295.53
2022-08-30T02:48:08.397Z,100299.03
2022-08-30T02:50:35.311Z,100289.97
2022-08-30T02:53:01.927Z,100290.72
2022-08-30T02:55:28.901Z,100302.97
2022-08-30T02:57:55.580Z,100296.16
2022-08-30T03:00:22.496Z,100293.88
2022-08-30T03:02:49.593Z,100307.50
2022-08-30T03:05:17.759Z,100307.19
2022-08-30T03:07:46.375Z,100315.31
2022-08-30T03:10:14.800Z,100318.53
2022-08-30T03:12:42.083Z,100320.69
2022-08-30T03:15:13.138Z,100324.97
2022-08-30T03:17:41.148Z,100332.53
2022-08-30T03:20:08.976Z,100311.81
2022-08-30T03:22:35.740Z,100327.25
2022-08-30T03:25:03.935Z,100321.53
2022-08-30T03:27:30.902Z,100328.00
2022-08-30T03:29:57.648Z,100332.88
2022-08-30T03:32:24.711Z,100319.19
2022-08-30T03:34:51.451Z,100333.28
2022-08-30T03:37:18.524Z,100337.66
2022-08-30T03:39:45.740Z,100343.31
2022-08-30T03:42:12.738Z,100334.28
2022-08-30T03:44:39.896Z,100348.41
2022-08-30T03:47:08.530Z,100347.91
2022-08-30T03:49:35.490Z,100353.31
2022-08-30T03:52:02.456Z,100358.97
2022-08-30T03:54:29.566Z,100350.75
2022-08-30T03:56:56.525Z,100365.41
2022-08-30T03:59:23.905Z,100366.25
2022-08-30T04:01:51.510Z,100376.97
2022-08-30T04:04:20.909Z,100375.38
2022-08-30T04:06:48.972Z,100368.94
2022-08-30T04:09:15.818Z,100375.84
2022-08-30T04:11:42.985Z,100389.37
2022-08-30T04:14:09.836Z,100379.75
2022-08-30T04:16:36.651Z,100391.75
2022-08-30T04:19:04.259Z,100394.69
2022-08-30T04:21:31.388Z,100376.50
2022-08-30T04:23:58.208Z,100388.78
2022-08-30T04:26:29.390Z,100388.53
2022-08-30T04:28:56.793Z,100389.37
2022-08-30T04:31:24.072Z,100386.44
2022-08-30T04:33:51.050Z,100388.97
2022-08-30T04:36:17.792Z,100386.81
2022-08-30T04:38:44.577Z,100380.66
2022-08-30T04:41:16.306Z,100362.44
2022-08-30T04:43:49.497Z,100384.59
2022-08-30T04:46:18.276Z,100389.00
2022-08-30T04:48:46.218Z,100378.72
2022-08-30T04:51:16.417Z,100379.63
2022-08-30T04:53:44.828Z,100372.31
2022-08-30T04:56:17.733Z,100383.28
2022-08-30T04:58:46.635Z,100387.69
2022-08-30T05:01:19.892Z,100374.69
2022-08-30T05:03:48.796Z,100381.06
2022-08-30T05:06:16.507Z,100387.72
2022-08-30T05:08:46.652Z,100383.44
2022-08-30T05:11:15.698Z,100387.06
2022-08-30T05:13:43.323Z,100388.44
2022-08-30T05:16:10.303Z,100376.72
2022-08-30T05:18:37.581Z,100380.00
2022-08-30T05:21:04.170Z,100389.56
2022-08-30T05:23:30.943Z,100388.50
2022-08-30T05:25:58.089Z,100388.28
2022-08-30T05:28:26.352Z,100391.31
2022-08-30T05:30:53.323Z,100389.16
2022-08-30T05:33:20.360Z,100393.53
2022-08-30T05:35:47.069Z,100383.22
2022-08-30T05:38:13.790Z,100383.25
2022-08-30T05:40:42.549Z,100368.59
2022-08-30T05:43:11.288Z,100373.53
2022-08-30T05:45:38.458Z,100375.19
2022-08-30T05:48:05.802Z,100384.75
2022-08-30T05:50:34.086Z,100368.41
2022-08-30T05:53:02.691Z,100376.09
2022-08-30T05:55:29.880Z,100372.06
2022-08-30T05:57:56.525Z,100376.97
2022-08-30T06:00:23.647Z,100374.81
2022-08-30T06:02:54.713Z,100378.31
2022-08-30T06:05:21.510Z,100377.53
2022-08-30T06:07:49.560Z,100376.53
2022-08-30T06:10:16.866Z,100378.78
2022-08-30T06:12:44.302Z,100385.91
2022-08-30T06:15:11.654Z,100387.88
2022-08-30T06:17:39.771Z,100378.91
2022-08-30T06:20:07.397Z,100389.81
2022-08-30T06:22:35.019Z,100371.84
2022-08-30T06:25:02.132Z,100381.94
2022-08-30T06:27:28.765Z,100378.97
2022-08-30T06:29:55.434Z,100387.13
2022-08-30T06:32:22.917Z,100369.97
2022-08-30T06:34:49.671Z,100391.50
2022-08-30T06:37:24.613Z,100385.03
2022-08-30T06:39:58.562Z,100374.69
2022-08-30T06:42:31.852Z,100387.25
2022-08-30T06:45:01.086Z,100373.94
2022-08-30T06:47:29.118Z,100387.28
2022-08-30T06:49:55.984Z,100389.72
2022-08-30T06:52:23.114Z,100382.97
2022-08-30T06:54:50.411Z,100376.94
2022-08-30T06:57:17.989Z,100373.16
2022-08-30T06:59:44.929Z,100377.47
2022-08-30T07:02:11.803Z,100390.31
2022-08-30T07:04:38.813Z,100389.53
2022-08-30T07:07:06.125Z,100390.38
2022-08-30T07:12:06.627Z,100393.37
2022-08-30T07:14:33.721Z,100396.16
2022-08-30T07:17:00.394Z,100392.87
2022-08-30T07:19:27.141Z,100400.50
2022-08-30T07:21:54.103Z,100398.88
2022-08-30T07:24:21.113Z,100382.00
2022-08-30T07:26:51.975Z,100405.47
2022-08-30T07:29:19.185Z,100407.09
2022-08-30T07:31:46.206Z,100392.97
2022-08-30T07:34:12.900Z,100411.50
2022-08-30T07:36:40.180Z,100396.28
2022-08-30T07:39:07.571Z,100397.13
2022-08-30T07:41:38.591Z,100411.53
2022-08-30T07:44:07.869Z,100412.09
2022-08-30T07:46:35.281Z,100399.56
2022-08-30T07:49:04.047Z,100409.91
2022-08-30T07:51:32.535Z,100400.09
2022-08-30T07:54:00.442Z,100416.72
2022-08-30T07:56:27.625Z,100402.84
2022-08-30T07:58:54.792Z,100412.66
2022-08-30T08:01:22.440Z,100405.59
2022-08-30T08:03:50.508Z,100398.00
2022-08-30T08:06:19.726Z,100405.88
2022-08-30T08:08:46.865Z,100407.81
2022-08-30T08:11:24.673Z,100399.37
2022-08-30T08:13:54.606Z,100411.62
2022-08-30T08:16:24.220Z,100401.00
2022-08-30T08:18:52.150Z,100390.94
2022-08-30T08:21:18.987Z,100387.41
2022-08-30T08:23:45.983Z,100379.22
2022-08-30T08:26:12.703Z,100387.94
2022-08-30T08:28:39.762Z,100390.72
2022-08-30T08:31:22.057Z,100399.97
2022-08-30T08:33:52.210Z,100401.06
2022-08-30T08:36:19.282Z,100376.25
2022-08-30T08:38:46.367Z,100390.16
2022-08-30T08:41:33.131Z,100379.28
2022-08-30T08:44:00.542Z,100392.06
2022-08-30T08:46:52.139Z,100401.88
2022-08-30T08:49:19.521Z,100400.25
2022-08-30T08:52:05.281Z,100394.78
2022-08-30T08:55:01.404Z,100401.06
2022-08-30T08:57:33.601Z,100396.97
2022-08-30T09:00:00.720Z,100396.97
2022-08-30T09:02:34.398Z,100397.25
2022-08-30T09:05:02.746Z,100399.72
2022-08-30T09:07:37.135Z,100392.09
2022-08-30T09:10:05.647Z,100393.72
2022-08-30T09:12:32.766Z,100407.31
2022-08-30T09:15:17.449Z,100410.31
2022-08-30T09:18:03.864Z,100408.66
2022-08-30T09:20:34.755Z,100402.41
2022-08-30T09:23:13.929Z,100398.03
2022-08-30T09:26:08.213Z,100404.84
2022-08-30T09:28:49.337Z,100403.50
2022-08-30T09:31:25.988Z,100397.47
2022-08-30T09:34:01.743Z,100390.41
2022-08-30T09:36:35.480Z,100391.50
2022-08-30T09:39:06.083Z,100395.03
2022-08-30T09:41:42.687Z,100391.47
2022-08-30T09:44:28.194Z,100390.94
2022-08-30T09:47:00.561Z,100397.47
2022-08-30T09:49:34.646Z,100400.75
2022-08-30T09:52:28.947Z,100388.22
2022-08-30T09:55:20.942Z,100408.12
2022-08-30T09:57:47.842Z,100399.66
2022-08-30T10:00:18.660Z,100393.37
2022-08-30T10:03:34.853Z,100392.56
2022-08-30T10:06:21.407Z,100396.94
2022-08-30T10:08:52.329Z,100390.66
2022-08-30T10:11:19.376Z,100397.44
2022-08-30T10:14:16.120Z,100386.28
2022-08-30T10:17:27.221Z,100400.72
2022-08-30T10:20:18.957Z,100396.34
2022-08-30T10:22:57.630Z,100399.59
2022-08-30T10:25:50.050Z,100390.06
2022-08-30T10:28:17.033Z,100392.78
2022-08-30T10:30:55.902Z,100388.44
2022-08-30T10:33:39.151Z,100401.25
2022-08-30T10:36:11.081Z,100403.97
2022-08-30T10:38:41.635Z,100384.34
2022-08-30T10:41:27.314Z,100393.03
2022-08-30T10:44:00.389Z,100384.84
2022-08-30T10:47:06.339Z,100376.16
2022-08-30T10:49:41.501Z,100393.03
2022-08-30T10:52:37.437Z,100391.41
2022-08-30T10:55:08.470Z,100388.69
2022-08-30T10:57:36.878Z,100381.31
2022-08-30T11:00:10.932Z,100380.75
2022-08-30T11:02:53.948Z,100374.47
2022-08-30T11:05:42.526Z,100376.31
2022-08-30T11:08:57.242Z,100377.94
2022-08-30T11:11:34.168Z,100377.09
2022-08-30T11:14:06.951Z,100366.72
2022-08-30T11:16:41.196Z,100365.31
2022-08-30T11:19:21.490Z,100371.34
2022-08-30T11:21:50.952Z,100360.16
2022-08-30T11:24:25.072Z,100366.41
2022-08-30T11:26:58.321Z,100368.87
2022-08-30T11:29:34.683Z,100365.84
2022-08-30T11:32:13.547Z,100371.28
2022-08-30T11:34:46.697Z,100360.38
2022-08-30T11:37:33.851Z,100347.31
2022-08-30T11:40:13.220Z,100352.72
2022-08-30T11:42:44.775Z,100351.88
2022-08-30T11:45:24.676Z,100354.31
2022-08-30T11:48:04.423Z,100359.78
2022-08-30T11:50:53.638Z,100359.50
2022-08-30T11:53:36.758Z,100361.38
2022-08-30T11:56:12.398Z,100347.50
2022-08-30T11:59:06.061Z,100338.81
2022-08-30T12:01:51.116Z,100344.19
2022-08-30T12:04:19.770Z,100329.75
2022-08-30T12:07:04.336Z,100335.09
2022-08-30T12:09:33.121Z,100341.91
2022-08-30T12:12:12.447Z,100328.59
2022-08-30T12:14:49.109Z,100333.22
2022-08-30T12:18:15.862Z,100331.00
2022-08-30T12:20:47.249Z,100335.87
2022-08-30T12:23:44.536Z,100323.91
2022-08-30T12:26:33.057Z,100330.66
2022-08-30T12:29:23.722Z,100326.28
2022-08-30T12:32:03.331Z,100334.19
2022-08-30T12:34:40.862Z,100335.81
2022-08-30T12:37:28.051Z,100332.00
2022-08-30T12:40:06.816Z,100325.97
2022-08-30T12:42:36.901Z,100310.16
2022-08-30T12:45:12.276Z,100326.19
2022-08-30T12:47:45.627Z,100313.69
2022-08-30T12:50:17.294Z,100322.66
2022-08-30T12:52:48.018Z,100317.75
2022-08-30T12:55:23.677Z,100315.03
2022-08-30T12:58:09.775Z,100315.50
2022-08-30T13:00:40.674Z,100314.41
2022-08-30T13:03:24.206Z,100302.97
2022-08-30T13:05:53.172Z,100313.22
2022-08-30T13:08:25.287Z,100313.22
2022-08-30T13:11:08.461Z,100316.47
2022-08-30T13:13:44.476Z,100300.16
2022-08-30T13:16:24.933Z,100307.72
2022-08-30T13:19:22.822Z,100305.50
2022-08-30T13:21:55.425Z,100302.50
2022-08-30T13:24:25.492Z,100292.69
2022-08-30T13:26:58.535Z,100281.75
2022-08-30T13:29:28.741Z,100297.87
2022-08-30T13:31:56.270Z,100284.72
2022-08-30T13:34:23.573Z,100290.12
2022-08-30T13:36:54.283Z,100284.41
2022-08-30T13:39:21.809Z,100276.22
2022-08-30T13:41:49.260Z,100284.09
2022-08-30T13:44:16.488Z,100284.41
2022-08-30T13:46:54.150Z,100277.00
2022-08-30T13:52:21.513Z,100288.22
2022-08-30T13:54:54.570Z,100283.03
2022-08-30T14:00:19.414Z,100279.72
2022-08-30T14:02:54.424Z,100275.63
2022-08-30T14:05:47.706Z,100270.38
2022-08-30T14:11:01.707Z,100256.78
2022-08-30T14:13:30.034Z,100259.81
2022-08-30T14:18:46.706Z,100262.47
2022-08-30T14:21:13.891Z,100261.66
2022-08-30T14:23:40.655Z,100260.03
2022-08-30T14:26:17.222Z,100266.88
2022-08-30T14:28:44.932Z,100277.00
2022-08-30T14:31:13.016Z,100258.44
2022-08-30T14:33:40.139Z,100264.44
2022-08-30T14:36:12.433Z,100251.59
2022-08-30T14:38:42.725Z,100243.97
2022-08-30T14:41:10.832Z,100246.19
2022-08-30T14:43:39.656Z,100232.88
2022-08-30T14:46:08.039Z,100253.87
2022-08-30T14:48:36.294Z,100242.94
2022-08-30T14:51:12.503Z,100230.69
2022-08-30T14:53:39.649Z,100240.19
2022-08-30T14:56:13.609Z,100225.19
2022-08-30T14:58:40.584Z,100232.88
2022-08-30T15:01:09.806Z,100224.13
2022-08-30T15:03:38.109Z,100223.87
2022-08-30T15:06:06.444Z,100226.06
2022-08-30T15:08:35.338Z,100223.09
2022-08-30T15:11:10.724Z,100215.47
2022-08-30T15:13:38.243Z,100224.19
2022-08-30T15:16:13.931Z,100211.69
2022-08-30T15:18:41.674Z,100226.91
2022-08-30T15:21:09.883Z,100238.94
2022-08-30T15:23:37.496Z,100225.56
2022-08-30T15:26:07.163Z,100225.03
2022-08-30T15:28:35.071Z,100219.09
2022-08-30T15:31:06.256Z,100215.22
2022-08-30T15:33:37.106Z,100209.75
2022-08-30T15:36:04.976Z,100214.41
2022-08-30T15:38:32.469Z,100210.34
2022-08-30T15:41:03.994Z,100216.59
2022-08-30T15:43:31.328Z,100215.28
2022-08-30T15:46:30.096Z,100213.13
2022-08-30T15:49:11.103Z,100216.16
2022-08-30T15:51:41.061Z,100214.53
2022-08-30T15:54:16.603Z,100199.34
2022-08-30T15:56:45.501Z,100213.53
2022-08-30T15:59:15.393Z,100201.59
2022-08-30T16:01:43.723Z,100201.03
2022-08-30T16:04:11.380Z,100211.69
2022-08-30T16:06:39.116Z,100209.53
2022-08-30T16:09:07.593Z,100214.78
2022-08-30T16:11:34.999Z,100207.97
2022-08-30T16:14:02.802Z,100203.66
2022-08-30T16:16:31.186Z,100222.75
2022-08-30T16:18:58.965Z,100207.25
2022-08-30T16:21:31.533Z,100207.31
2022-08-30T16:24:01.593Z,100224.75
2022-08-30T16:26:30.227Z,100220.97
2022-08-30T16:28:57.272Z,100229.97
2022-08-30T16:31:26.890Z,100222.94
2022-08-30T16:33:55.463Z,100228.16
2022-08-30T16:36:30.016Z,100230.91
2022-08-30T16:38:58.304Z,100231.47
2022-08-30T16:41:26.996Z,100226.06
2022-08-30T16:43:54.281Z,100233.19
2022-08-30T16:46:27.293Z,100232.09
2022-08-30T16:48:57.956Z,100244.41
2022-08-30T16:51:27.439Z,100232.19
2022-08-30T16:54:00.079Z,100248.28
2022-08-30T16:56:29.719Z,100248.84
2022-08-30T16:59:01.682Z,100256.78
2022-08-30T17:01:35.337Z,100268.53
2022-08-30T17:04:03.602Z,100265.00
2022-08-30T17:06:30.702Z,100259.84
2022-08-30T17:08:58.946Z,100258.47
2022-08-30T17:11:26.182Z,100268.56
2022-08-30T17:13:53.613Z,100274.06
2022-08-30T17:16:22.710Z,100269.44
2022-08-30T17:19:00.817Z,100286.34
2022-08-30T17:21:29.613Z,100288.78
2022-08-30T17:24:01.618Z,100294.00
2022-08-30T17:26:31.174Z,100301.06
2022-08-30T17:28:59.104Z,100298.09
2022-08-30T17:31:29.071Z,100291.31
2022-08-30T17:34:01.164Z,100298.37
2022-08-30T17:36:36.514Z,100301.09
2022-08-30T17:39:11.293Z,100307.66
2022-08-30T17:41:45.465Z,100292.97
2022-08-30T17:44:30.886Z,100307.94
2022-08-30T17:46:59.887Z,100315.03
2022-08-30T17:49:27.748Z,100321.28
2022-08-30T17:51:56.945Z,100306.56
2022-08-30T17:54:26.196Z,100318.53
2022-08-30T17:56:54.310Z,100307.66
2022-08-30T17:59:25.220Z,100319.63
2022-08-30T18:01:54.907Z,100318.53
2022-08-30T18:04:24.753Z,100324.81
2022-08-30T18:06:52.763Z,100325.88
2022-08-30T18:09:19.544Z,100333.78
2022-08-30T18:11:48.449Z,100338.13
2022-08-30T18:14:16.352Z,100339.75
2022-08-30T18:16:53.152Z,100344.91
2022-08-30T18:19:27.064Z,100336.75
2022-08-30T18:21:55.331Z,100339.75
2022-08-30T18:24:23.560Z,100341.38
2022-08-30T18:26:50.546Z,100340.25
2022-08-30T18:29:29.336Z,100331.84
2022-08-30T18:32:02.932Z,100346.25
2022-08-30T18:34:30.021Z,100340.81
2022-08-30T18:36:57.111Z,100335.34
2022-08-30T18:39:24.379Z,100348.41
2022-08-30T18:41:54.227Z,100344.06
2022-08-30T18:44:28.323Z,100351.69
2022-08-30T18:46:57.847Z,100346.78
2022-08-30T18:49:25.573Z,100342.69
2022-08-30T18:51:52.596Z,100346.22
2022-08-30T18:54:20.098Z,100339.94
2022-08-30T18:56:46.791Z,100345.63
2022-08-30T18:59:14.062Z,100337.75
2022-08-30T19:01:42.602Z,100342.66
2022-08-30T19:04:12.386Z,100337.75
2022-08-30T19:06:57.048Z,100340.69
2022-08-30T19:09:23.972Z,100336.59
2022-08-30T19:11:53.606Z,100340.69
2022-08-30T19:14:20.586Z,100345.81
2022-08-30T19:16:48.037Z,100346.66
2022-08-30T19:19:14.866Z,100340.12
2022-08-30T19:21:42.186Z,100348.81
2022-08-30T19:24:09.166Z,100347.69
2022-08-30T19:26:37.364Z,100334.09
2022-08-30T19:29:05.832Z,100339.00
2022-08-30T19:31:33.536Z,100348.22
2022-08-30T19:34:00.221Z,100341.66
2022-08-30T19:36:29.267Z,100354.72
2022-08-30T19:38:56.569Z,100334.00
2022-08-30T19:41:23.627Z,100349.78
2022-08-30T19:43:51.502Z,100335.91
2022-08-30T19:46:18.362Z,100339.16
2022-08-30T19:48:45.156Z,100346.50
2022-08-30T19:51:14.380Z,100342.37
2022-08-30T19:53:42.133Z,100335.25
2022-08-30T19:56:08.883Z,100317.84
2022-08-30T19:58:36.182Z,100330.88
2022-08-30T20:01:12.197Z,100343.13
2022-08-30T20:03:52.008Z,100340.94
2022-08-30T20:06:19.715Z,100346.91
2022-08-30T20:08:47.560Z,100349.06
2022-08-30T20:11:17.661Z,100348.75
2022-08-30T20:13:44.909Z,100352.00
2022-08-30T20:16:13.247Z,100351.72
2022-08-30T20:18:42.771Z,100353.28
2022-08-30T20:21:13.372Z,100353.00
2022-08-30T20:23:42.100Z,100348.38
2022-08-30T20:26:10.634Z,100347.81
2022-08-30T20:28:37.893Z,100347.25
2022-08-30T20:31:06.554Z,100332.53
2022-08-30T20:33:36.479Z,100350.75
2022-08-30T20:36:05.750Z,100353.47
2022-08-30T20:38:33.127Z,100357.00
2022-08-30T20:41:01.155Z,100351.59
2022-08-30T20:43:29.730Z,100338.72
2022-08-30T20:45:57.133Z,100346.34
2022-08-30T20:48:26.060Z,100357.00
2022-08-30T20:50:52.715Z,100360.78
2022-08-30T20:53:19.778Z,100359.16
2022-08-30T20:55:47.576Z,100356.97
2022-08-30T20:58:15.146Z,100352.03
2022-08-30T21:00:45.653Z,100347.12
2022-08-30T21:03:27.344Z,100350.91
2022-08-30T21:05:56.793Z,100357.97
2022-08-30T21:08:23.543Z,100348.09
2022-08-30T21:10:50.232Z,100342.13
2022-08-30T21:13:17.550Z,100355.16
2022-08-30T21:15:47.110Z,100336.84
2022-08-30T21:18:14.620Z,100353.16
2022-08-30T21:20:42.030Z,100355.31
2022-08-30T21:23:09.306Z,100350.66
2022-08-30T21:25:40.324Z,100351.44
2022-08-30T21:28:07.656Z,100360.66
2022-08-30T21:30:35.754Z,100353.03
2022-08-30T21:33:03.808Z,100355.75
2022-08-30T21:35:49.816Z,100354.59
2022-08-30T21:38:17.731Z,100342.69
2022-08-30T21:40:44.871Z,100343.47
2022-08-30T21:43:12.235Z,100340.19
2022-08-30T21:45:40.215Z,100345.03
2022-08-30T21:48:08.430Z,100345.56
2022-08-30T21:50:37.707Z,100337.28
2022-08-30T21:53:06.003Z,100349.78
2022-08-30T21:55:33.197Z,100350.03
2022-08-30T21:58:00.131Z,100345.13
2022-08-30T22:00:26.883Z,100342.91
2022-08-30T22:02:54.075Z,100344.22
2022-08-30T22:05:20.963Z,100331.16
2022-08-30T22:07:47.707Z,100334.16
2022-08-30T22:10:15.054Z,100340.91
2022-08-30T22:12:41.807Z,100343.03
2022-08-30T22:15:09.357Z,100330.22
2022-08-30T22:17:36.359Z,100336.13
2022-08-30T22:20:05.477Z,100338.00
2022-08-30T22:22:32.699Z,100345.28
2022-08-30T22:24:59.848Z,100341.09
2022-08-30T22:27:26.675Z,100332.66
2022-08-30T22:29:53.430Z,100339.66
2022-08-30T22:32:21.511Z,100337.69
2022-08-30T22:34:49.760Z,100336.59
2022-08-30T22:37:16.964Z,100325.03
2022-08-30T22:39:43.922Z,100338.31
2022-08-30T22:42:10.664Z,100326.50
2022-08-30T22:44:37.306Z,100335.47
2022-08-30T22:47:04.474Z,100337.53
2022-08-30T22:49:31.221Z,100340.97
2022-08-30T22:51:57.980Z,100326.38
2022-08-30T22:54:24.909Z,100342.97
2022-08-30T22:56:51.674Z,100331.72
2022-08-30T22:59:18.411Z,100326.97
2022-08-30T23:01:47.109Z,100335.69
2022-08-30T23:04:13.975Z,100331.00
2022-08-30T23:06:41.274Z,100330.59
2022-08-30T23:09:16.919Z,100341.16
2022-08-30T23:11:43.635Z,100335.91
2022-08-30T23:14:10.429Z,100332.06
2022-08-30T23:16:38.016Z,100334.19
2022-08-30T23:19:05.399Z,100325.91
2022-08-30T23:21:32.173Z,100338.72
2022-08-30T23:24:18.004Z,100335.66
2022-08-30T23:27:04.816Z,100336.72
2022-08-30T23:29:52.015Z,100325.16
2022-08-30T23:32:37.710Z,100338.78
2022-08-30T23:35:29.607Z,100336.56
2022-08-30T23:38:16.916Z,100322.34
2022-08-30T23:41:03.164Z,100329.50
2022-08-30T23:43:48.445Z,100334.34
2022-08-30T23:46:34.504Z,100318.97
2022-08-30T23:49:19.880Z,100320.12
2022-08-30T23:52:05.982Z,100326.28
2022-08-30T23:54:51.925Z,100324.38
2022-08-30T23:57:45.071Z,100327.31
